createdAt,value
2019-01-15T00:01:49.584Z,99955.61
2019-01-15T00:04:20.510Z,99944.11
2019-01-15T00:06:51.430Z,99949.46
2019-01-15T00:09:22.154Z,99950.81
2019-01-15T00:11:53.030Z,99946.83
2019-01-15T00:14:23.861Z,99949.79
2019-01-15T00:16:54.539Z,99956.75
2019-01-15T00:19:25.426Z,99953.92
2019-01-15T00:21:56.108Z,99957.43
2019-01-15T00:24:26.863Z,99957.11
2019-01-15T00:26:57.406Z,99960.45
2019-01-15T00:29:27.877Z,99956.23
2019-01-15T00:31:58.388Z,99960.23
2019-01-15T00:34:28.877Z,99964.36
2019-01-15T00:36:59.473Z,99959.88
2019-01-15T00:39:29.945Z,99962.05
2019-01-15T00:42:00.465Z,99961.92
2019-01-15T00:44:30.996Z,99966.08
2019-01-15T00:47:01.765Z,99968.39
2019-01-15T00:49:32.239Z,99961.05
2019-01-15T00:52:02.825Z,99970.70
2019-01-15T00:54:33.296Z,99965.83
2019-01-15T00:57:03.925Z,99974.86
2019-01-15T00:59:34.477Z,99973.88
2019-01-15T01:02:05.165Z,99970.37
2019-01-15T01:04:35.737Z,99962.05
2019-01-15T01:07:06.541Z,99963.16
2019-01-15T01:09:37.001Z,99955.66
2019-01-15T01:12:07.537Z,99963.84
2019-01-15T01:14:38.062Z,99971.22
2019-01-15T01:17:08.578Z,99973.91
2019-01-15T01:19:39.113Z,99982.72
2019-01-15T01:22:09.709Z,99987.36
2019-01-15T01:24:40.212Z,99988.50
2019-01-15T01:27:10.846Z,99988.44
2019-01-15T01:29:41.321Z,99987.63
2019-01-15T01:32:12.551Z,99986.30
2019-01-15T01:34:43.020Z,99992.33
2019-01-15T01:37:13.575Z,100001.23
2019-01-15T01:39:44.059Z,100004.36
2019-01-15T01:42:14.673Z,100005.00
2019-01-15T01:44:45.465Z,100009.42
2019-01-15T01:47:16.403Z,100014.94
2019-01-15T01:49:47.032Z,100006.81
2019-01-15T01:52:17.818Z,100012.63
2019-01-15T01:54:48.606Z,100018.12
2019-01-15T01:57:19.518Z,100014.61
2019-01-15T01:59:50.339Z,100017.58
2019-01-15T02:02:21.242Z,100014.69
2019-01-15T02:04:51.715Z,100013.71
2019-01-15T02:07:22.426Z,100011.66
2019-01-15T02:09:52.895Z,100014.33
2019-01-15T02:12:23.531Z,100014.69
2019-01-15T02:14:54.115Z,100011.34
2019-01-15T02:17:24.652Z,100009.66
2019-01-15T02:19:55.139Z,100008.64
2019-01-15T02:22:25.684Z,100007.64
2019-01-15T02:24:56.164Z,100017.29
2019-01-15T02:27:27.972Z,100015.59
2019-01-15T02:29:58.444Z,100015.77
2019-01-15T02:32:29.013Z,100020.37
2019-01-15T02:34:59.499Z,100023.45
2019-01-15T02:37:30.599Z,100025.74
2019-01-15T02:40:01.504Z,100026.79
2019-01-15T02:42:32.190Z,100018.84
2019-01-15T02:45:02.835Z,100021.14
2019-01-15T02:47:34.350Z,100020.78
2019-01-15T02:50:05.944Z,100022.80
2019-01-15T02:52:36.754Z,100023.77
2019-01-15T02:55:08.542Z,100027.11
2019-01-15T02:57:39.322Z,100026.91
2019-01-15T03:00:16.759Z,100020.13
2019-01-15T03:02:47.967Z,100017.86
2019-01-15T03:05:19.054Z,100012.83
2019-01-15T03:07:50.348Z,100020.85
2019-01-15T03:10:21.770Z,100021.73
2019-01-15T03:12:56.412Z,100019.75
2019-01-15T03:15:26.387Z,100014.14
2019-01-15T03:17:57.315Z,100018.66
2019-01-15T03:20:28.096Z,100012.83
2019-01-15T03:22:58.878Z,100005.03
2019-01-15T03:25:29.628Z,100004.68
2019-01-15T03:28:00.554Z,100005.36
2019-01-15T03:30:31.404Z,100003.34
2019-01-15T03:33:02.300Z,99995.48
2019-01-15T03:35:33.073Z,99992.30
2019-01-15T03:38:03.973Z,99989.12
2019-01-15T03:40:34.890Z,99993.77
2019-01-15T03:43:05.961Z,99993.05
2019-01-15T03:45:36.736Z,100000.03
2019-01-15T03:48:08.003Z,99996.52
2019-01-15T03:50:38.650Z,100007.50
2019-01-15T03:53:09.722Z,100014.32
2019-01-15T03:55:40.515Z,100011.33
2019-01-15T03:58:11.267Z,100015.84
2019-01-15T04:00:42.162Z,100014.68
2019-01-15T04:03:13.430Z,100022.83
2019-01-15T04:05:44.172Z,100025.34
2019-01-15T04:08:15.456Z,100031.87
2019-01-15T04:10:46.221Z,100029.04
2019-01-15T04:13:17.381Z,100022.19
2019-01-15T04:15:48.137Z,100020.66
2019-01-15T04:18:18.919Z,100021.86
2019-01-15T04:20:49.709Z,100014.91
2019-01-15T04:23:20.564Z,100017.61
2019-01-15T04:25:51.440Z,100015.56
2019-01-15T04:28:22.243Z,100007.61
2019-01-15T04:30:53.020Z,100006.44
2019-01-15T04:33:24.103Z,99994.97
2019-01-15T04:35:55.022Z,99990.62
2019-01-15T04:38:25.814Z,99991.30
2019-01-15T04:40:56.593Z,99994.28
2019-01-15T04:43:27.352Z,99995.62
2019-01-15T04:45:58.026Z,99989.41
2019-01-15T04:48:29.018Z,99990.39
2019-01-15T04:51:00.007Z,99990.03
2019-01-15T04:53:30.544Z,99984.19
2019-01-15T04:56:01.114Z,99982.81
2019-01-15T04:58:31.646Z,99988.11
2019-01-15T05:01:02.114Z,99980.77
2019-01-15T05:03:33.014Z,99973.78
2019-01-15T05:06:03.613Z,99973.78
2019-01-15T05:08:34.264Z,99976.13
2019-01-15T05:11:04.742Z,99976.97
2019-01-15T05:13:35.267Z,99972.45
2019-01-15T05:16:05.733Z,99964.91
2019-01-15T05:18:36.282Z,99961.73
2019-01-15T05:21:06.762Z,99959.52
2019-01-15T05:23:37.866Z,99956.20
2019-01-15T05:26:08.784Z,99968.02
2019-01-15T05:28:39.776Z,99967.50
2019-01-15T05:31:10.619Z,99974.39
2019-01-15T05:33:41.427Z,99977.02
2019-01-15T05:36:12.186Z,99978.83
2019-01-15T05:38:42.969Z,99974.27
2019-01-15T05:41:13.653Z,99969.55
2019-01-15T05:43:44.532Z,99973.91
2019-01-15T05:46:15.172Z,99974.27
2019-01-15T05:48:46.462Z,99973.11
2019-01-15T05:51:30.942Z,99960.93
2019-01-15T05:54:01.505Z,99960.73
2019-01-15T05:56:33.352Z,99949.64
2019-01-15T05:59:04.249Z,99948.59
2019-01-15T06:01:35.107Z,99944.96
2019-01-15T06:04:06.370Z,99948.63
2019-01-15T06:06:37.119Z,99947.46
2019-01-15T06:09:10.428Z,99948.30
2019-01-15T06:11:41.215Z,99947.83
2019-01-15T06:14:11.801Z,99941.01
2019-01-15T06:16:42.269Z,99946.20
2019-01-15T06:19:16.336Z,99946.05
2019-01-15T06:21:47.263Z,99955.84
2019-01-15T06:24:18.234Z,99957.70
2019-01-15T06:26:49.257Z,99959.68
2019-01-15T06:29:20.286Z,99958.67
2019-01-15T06:31:51.216Z,99971.66
2019-01-15T06:34:22.313Z,99969.16
2019-01-15T06:36:53.082Z,99979.16
2019-01-15T06:39:24.085Z,99976.01
2019-01-15T06:41:54.966Z,99976.17
2019-01-15T06:44:26.031Z,99980.69
2019-01-15T06:46:56.964Z,99980.73
2019-01-15T06:49:28.045Z,99984.11
2019-01-15T06:51:58.927Z,99992.63
2019-01-15T06:54:29.834Z,100004.12
2019-01-15T06:57:00.711Z,100008.27
2019-01-15T06:59:31.613Z,100008.80
2019-01-15T07:02:02.394Z,100012.50
2019-01-15T07:04:33.387Z,100014.81
2019-01-15T07:07:04.461Z,100013.47
2019-01-15T07:09:35.446Z,100009.97
2019-01-15T07:12:06.589Z,100009.13
2019-01-15T07:14:37.627Z,100016.42
2019-01-15T07:17:08.438Z,100012.75
2019-01-15T07:19:39.593Z,100009.04
2019-01-15T07:22:10.407Z,100010.66
2019-01-15T07:24:41.374Z,100011.17
2019-01-15T07:27:12.178Z,100006.83
2019-01-15T07:29:43.082Z,100007.83
2019-01-15T07:32:14.069Z,100016.63
2019-01-15T07:34:45.150Z,100023.45
2019-01-15T07:37:16.027Z,100026.30
2019-01-15T07:39:46.977Z,100021.67
2019-01-15T07:42:17.928Z,100025.66
2019-01-15T07:44:48.921Z,100031.14
2019-01-15T07:47:19.810Z,100022.80
2019-01-15T07:49:50.746Z,100027.07
2019-01-15T07:52:21.724Z,100026.27
2019-01-15T07:54:52.958Z,100016.98
2019-01-15T07:57:23.658Z,100022.16
2019-01-15T07:59:54.543Z,100022.92
2019-01-15T08:02:25.320Z,100022.70
2019-01-15T08:04:56.379Z,100025.33
2019-01-15T08:07:27.197Z,100022.09
2019-01-15T08:09:58.097Z,100019.91
2019-01-15T08:12:28.882Z,100017.84
2019-01-15T08:15:00.100Z,100024.34
2019-01-15T08:17:30.945Z,100023.90
2019-01-15T08:20:01.831Z,100027.89
2019-01-15T08:22:32.638Z,100035.72
2019-01-15T08:25:05.139Z,100041.78
2019-01-15T08:27:35.998Z,100044.28
2019-01-15T08:30:12.916Z,100040.94
2019-01-15T08:32:43.918Z,100037.30
2019-01-15T08:35:15.798Z,100046.13
2019-01-15T08:37:46.861Z,100034.95
2019-01-15T08:40:17.812Z,100040.08
2019-01-15T08:42:49.366Z,100043.54
2019-01-15T08:45:20.494Z,100042.21
2019-01-15T08:47:53.314Z,100048.02
2019-01-15T08:50:26.685Z,100047.73
2019-01-15T08:52:57.668Z,100041.72
2019-01-15T08:55:28.446Z,100043.84
2019-01-15T08:57:59.428Z,100044.14
2019-01-15T09:00:30.426Z,100037.84
2019-01-15T09:03:01.584Z,100036.78
2019-01-15T09:05:32.528Z,100034.87
2019-01-15T09:08:03.592Z,100028.29
2019-01-15T09:10:34.571Z,100037.05
2019-01-15T09:13:05.780Z,100039.44
2019-01-15T09:15:36.564Z,100038.33
2019-01-15T09:18:07.847Z,100038.84
2019-01-15T09:20:38.748Z,100036.38
2019-01-15T09:23:09.562Z,100029.56
2019-01-15T09:25:40.441Z,100026.08
2019-01-15T09:28:11.422Z,100031.11
2019-01-15T09:30:42.301Z,100032.80
2019-01-15T09:33:13.345Z,100028.45
2019-01-15T09:35:44.191Z,100031.14
2019-01-15T09:38:15.573Z,100032.49
2019-01-15T09:40:46.460Z,100038.16
2019-01-15T09:43:17.546Z,100031.84
2019-01-15T09:45:48.358Z,100030.69
2019-01-15T09:48:24.237Z,100036.84
2019-01-15T09:50:55.206Z,100036.86
2019-01-15T09:53:26.126Z,100030.52
2019-01-15T09:55:58.122Z,100040.73
2019-01-15T09:58:29.301Z,100044.56
2019-01-15T10:01:00.238Z,100042.87
2019-01-15T10:03:31.235Z,100041.22
2019-01-15T10:06:02.099Z,100039.20
2019-01-15T10:08:33.068Z,100040.55
2019-01-15T10:11:03.970Z,100048.41
2019-01-15T10:13:34.971Z,100038.38
2019-01-15T10:16:06.074Z,100039.72
2019-01-15T10:18:37.049Z,100044.05
2019-01-15T10:21:07.750Z,100041.87
2019-01-15T10:23:38.724Z,100035.02
2019-01-15T10:26:09.418Z,100035.98
2019-01-15T10:28:40.701Z,100030.14
2019-01-15T10:31:51.425Z,100025.78
2019-01-15T10:34:27.074Z,100016.89
2019-01-15T10:36:55.862Z,100017.08
2019-01-15T10:39:26.826Z,100013.05
2019-01-15T10:41:57.797Z,100015.06
2019-01-15T10:44:28.587Z,100006.87
2019-01-15T10:46:59.847Z,100011.38
2019-01-15T10:49:30.756Z,100006.20
2019-01-15T10:52:02.214Z,100004.55
2019-01-15T10:54:33.047Z,99993.81
2019-01-15T10:57:04.034Z,99993.97
2019-01-15T10:59:36.099Z,99999.31
2019-01-15T11:02:06.980Z,99996.11
2019-01-15T11:04:37.916Z,99988.27
2019-01-15T11:07:08.969Z,99990.27
2019-01-15T11:09:39.814Z,99991.89
2019-01-15T11:12:10.758Z,99982.73
2019-01-15T11:14:42.101Z,99980.70
2019-01-15T11:17:13.027Z,99979.63
2019-01-15T11:19:43.872Z,99971.78
2019-01-15T11:22:14.852Z,99972.39
2019-01-15T11:24:45.758Z,99972.39
2019-01-15T11:27:16.604Z,99966.55
2019-01-15T11:29:47.479Z,99961.02
2019-01-15T11:32:18.246Z,99958.71
2019-01-15T11:34:49.150Z,99961.97
2019-01-15T11:37:20.130Z,99960.12
2019-01-15T11:39:51.033Z,99954.30
2019-01-15T11:42:21.917Z,99944.94
2019-01-15T11:44:52.901Z,99943.02
2019-01-15T11:47:23.576Z,99937.92
2019-01-15T11:49:54.620Z,99936.45
2019-01-15T11:52:25.369Z,99939.94
2019-01-15T11:54:56.638Z,99939.44
2019-01-15T11:57:27.529Z,99944.16
2019-01-15T11:59:58.797Z,99937.60
2019-01-15T12:03:03.719Z,99935.11
2019-01-15T12:05:56.266Z,99930.70
2019-01-15T12:08:45.122Z,99927.18
2019-01-15T12:11:33.879Z,99928.89
2019-01-15T12:14:18.540Z,99928.23
2019-01-15T12:17:17.640Z,99927.47
2019-01-15T12:20:22.585Z,99925.63
2019-01-15T12:23:15.529Z,99925.79
2019-01-15T12:25:57.037Z,99923.92
2019-01-15T12:28:40.857Z,99924.66
2019-01-15T12:31:34.016Z,99921.64
2019-01-15T12:34:24.104Z,99925.23
2019-01-15T12:37:12.862Z,99918.05
2019-01-15T12:40:02.129Z,99907.89
2019-01-15T12:43:10.661Z,99908.89
2019-01-15T12:45:59.713Z,99913.22
2019-01-15T12:48:48.171Z,99912.04
2019-01-15T12:51:32.721Z,99904.72
2019-01-15T12:54:26.602Z,99899.70
2019-01-15T12:57:19.316Z,99903.38
2019-01-15T13:00:05.653Z,99900.98
2019-01-15T13:03:02.080Z,99895.31
2019-01-15T13:05:58.008Z,99893.63
2019-01-15T13:08:57.206Z,99895.03
2019-01-15T13:11:53.130Z,99896.55
2019-01-15T13:14:45.984Z,99895.37
2019-01-15T13:17:38.732Z,99892.41
2019-01-15T13:20:29.742Z,99900.47
2019-01-15T13:23:11.145Z,99889.79
2019-01-15T13:25:59.779Z,99894.80
2019-01-15T13:29:01.865Z,99891.76
2019-01-15T13:31:50.502Z,99893.34
2019-01-15T13:34:40.385Z,99891.48
2019-01-15T13:37:28.732Z,99889.30
2019-01-15T13:40:24.451Z,99882.41
2019-01-15T13:43:13.002Z,99889.27
2019-01-15T13:46:09.340Z,99890.48
2019-01-15T13:48:57.990Z,99896.30
2019-01-15T13:51:53.819Z,99896.21
2019-01-15T13:54:41.135Z,99898.39
2019-01-15T13:57:29.835Z,99890.17
2019-01-15T14:00:18.136Z,99892.01
2019-01-15T14:03:13.857Z,99891.76
2019-01-15T14:06:09.678Z,99896.27
2019-01-15T14:09:14.784Z,99892.22
2019-01-15T14:12:05.167Z,99886.13
2019-01-15T14:14:53.662Z,99893.94
2019-01-15T14:17:47.846Z,99897.40
2019-01-15T14:20:46.335Z,99902.25
2019-01-15T14:23:33.143Z,99899.39
2019-01-15T14:26:23.024Z,99898.48
2019-01-15T14:29:13.009Z,99896.61
2019-01-15T14:32:01.765Z,99896.23
2019-01-15T14:35:10.741Z,99901.90
2019-01-15T14:38:12.175Z,99899.22
2019-01-15T14:41:07.579Z,99887.91
2019-01-15T14:43:55.844Z,99889.14
2019-01-15T14:46:40.004Z,99891.09
2019-01-15T14:49:32.278Z,99892.28
2019-01-15T14:52:35.029Z,99893.63
2019-01-15T14:55:31.580Z,99889.38
2019-01-15T14:58:30.324Z,99890.22
2019-01-15T15:01:25.521Z,99893.46
2019-01-15T15:04:14.997Z,99900.01
2019-01-15T15:07:00.385Z,99897.80
2019-01-15T15:09:48.285Z,99898.67
2019-01-15T15:12:46.966Z,99904.41
2019-01-15T15:15:35.884Z,99901.23
2019-01-15T15:18:28.129Z,99894.72
2019-01-15T15:21:23.773Z,99892.94
2019-01-15T15:24:11.831Z,99889.30
2019-01-15T15:27:10.452Z,99888.27
2019-01-15T15:30:17.993Z,99886.00
2019-01-15T15:33:16.440Z,99884.19
2019-01-15T15:36:05.877Z,99886.00
2019-01-15T15:38:58.000Z,99885.69
2019-01-15T15:41:56.490Z,99885.27
2019-01-15T15:45:04.061Z,99884.09
2019-01-15T15:47:51.143Z,99882.97
2019-01-15T15:50:32.829Z,99885.65
2019-01-15T15:53:28.282Z,99884.02
2019-01-15T15:56:16.729Z,99889.41
2019-01-15T15:59:21.220Z,99881.80
2019-01-15T16:02:08.181Z,99876.84
2019-01-15T16:04:56.644Z,99876.48
2019-01-15T16:07:44.962Z,99875.07
2019-01-15T16:10:27.040Z,99872.97
2019-01-15T16:13:15.525Z,99871.17
2019-01-15T16:16:03.817Z,99873.03
2019-01-15T16:18:56.065Z,99876.23
2019-01-15T16:22:03.780Z,99867.38
2019-01-15T16:24:53.353Z,99871.89
2019-01-15T16:27:42.793Z,99866.08
2019-01-15T16:30:33.613Z,99869.28
2019-01-15T16:33:32.206Z,99872.45
2019-01-15T16:36:29.138Z,99875.13
2019-01-15T16:39:27.963Z,99869.22
2019-01-15T16:42:20.674Z,99870.53
2019-01-15T16:45:09.329Z,99872.53
2019-01-15T16:48:14.877Z,99877.52
2019-01-15T16:50:58.412Z,99876.00
2019-01-15T16:53:49.011Z,99873.23
2019-01-15T16:56:44.895Z,99876.58
2019-01-15T16:59:41.270Z,99876.91
2019-01-15T17:02:29.721Z,99870.88
2019-01-15T17:05:37.726Z,99873.70
2019-01-15T17:08:39.559Z,99882.28
2019-01-15T17:11:39.304Z,99882.18
2019-01-15T17:14:27.470Z,99885.36
2019-01-15T17:17:15.795Z,99885.58
2019-01-15T17:20:14.480Z,99884.59
2019-01-15T17:23:01.498Z,99882.28
2019-01-15T17:25:49.858Z,99882.59
2019-01-15T17:28:34.811Z,99875.95
2019-01-15T17:31:23.670Z,99881.14
2019-01-15T17:34:20.107Z,99880.00
2019-01-15T17:37:28.320Z,99882.19
2019-01-15T17:40:29.830Z,99878.58
2019-01-15T17:43:20.679Z,99882.61
2019-01-15T17:46:11.908Z,99879.97
2019-01-15T17:49:04.441Z,99870.14
2019-01-15T17:51:52.889Z,99875.97
2019-01-15T17:54:40.723Z,99877.16
2019-01-15T17:57:36.648Z,99876.17
2019-01-15T18:00:37.906Z,99872.98
2019-01-15T18:03:39.661Z,99874.66
2019-01-15T18:06:35.276Z,99874.52
2019-01-15T18:09:36.773Z,99874.35
2019-01-15T18:12:22.003Z,99878.68
2019-01-15T18:15:17.953Z,99880.33
2019-01-15T18:18:07.713Z,99881.84
2019-01-15T18:20:46.430Z,99881.34
2019-01-15T18:23:45.183Z,99879.18
2019-01-15T18:26:50.157Z,99879.36
2019-01-15T18:29:27.342Z,99879.50
2019-01-15T18:32:00.003Z,99874.00
2019-01-15T18:35:03.245Z,99876.16
2019-01-15T18:37:53.125Z,99876.85
2019-01-15T18:40:41.332Z,99876.52
2019-01-15T18:43:29.706Z,99875.33
2019-01-15T18:46:37.522Z,99880.00
2019-01-15T18:49:36.022Z,99879.02
2019-01-15T18:52:31.657Z,99871.83
2019-01-15T18:55:30.194Z,99873.66
2019-01-15T18:58:15.783Z,99869.33
2019-01-15T19:01:05.546Z,99870.17
2019-01-15T19:03:54.202Z,99867.83
2019-01-15T19:06:47.113Z,99864.84
2019-01-15T19:09:42.710Z,99868.98
2019-01-15T19:12:41.395Z,99867.00
2019-01-15T19:15:47.017Z,99858.98
2019-01-15T19:18:45.612Z,99863.66
2019-01-15T19:21:34.121Z,99857.16
2019-01-15T19:24:23.725Z,99852.98
2019-01-15T19:27:16.189Z,99851.47
2019-01-15T19:30:20.851Z,99848.98
2019-01-15T19:33:10.273Z,99848.31
2019-01-15T19:36:17.888Z,99842.31
2019-01-15T19:39:10.546Z,99837.63
2019-01-15T19:41:59.169Z,99842.48
2019-01-15T19:45:19.157Z,99837.63
2019-01-15T19:48:00.609Z,99836.30
2019-01-15T19:50:48.947Z,99833.97
2019-01-15T19:53:44.608Z,99835.97
2019-01-15T19:56:33.261Z,99835.66
2019-01-15T19:59:19.872Z,99831.97
2019-01-15T20:02:23.714Z,99835.63
2019-01-15T20:05:12.434Z,99833.14
2019-01-15T20:08:15.423Z,99825.30
2019-01-15T20:11:07.763Z,99825.45
2019-01-15T20:13:55.834Z,99821.62
2019-01-15T20:16:44.510Z,99818.28
2019-01-15T20:19:32.681Z,99815.12
2019-01-15T20:22:28.828Z,99815.30
2019-01-15T20:25:25.369Z,99813.61
2019-01-15T20:28:14.853Z,99813.13
2019-01-15T20:31:10.886Z,99814.28
2019-01-15T20:33:59.602Z,99815.44
2019-01-15T20:36:49.200Z,99823.30
2019-01-15T20:39:48.307Z,99822.11
2019-01-15T20:42:36.754Z,99827.80
2019-01-15T20:45:19.771Z,99819.45
2019-01-15T20:48:08.027Z,99819.62
2019-01-15T20:51:03.214Z,99816.45
2019-01-15T20:53:47.779Z,99816.45
2019-01-15T20:56:35.993Z,99808.66
2019-01-15T20:59:24.371Z,99808.66
2019-01-15T21:02:05.452Z,99800.64
2019-01-15T21:04:54.103Z,99797.66
2019-01-15T21:07:37.944Z,99802.81
2019-01-15T21:10:31.717Z,99792.63
2019-01-15T21:13:17.913Z,99796.63
2019-01-15T21:16:06.465Z,99793.30
2019-01-15T21:18:56.449Z,99798.31
2019-01-15T21:21:47.155Z,99800.30
2019-01-15T21:24:46.252Z,99796.66
2019-01-15T21:27:50.644Z,99794.16
2019-01-15T21:30:39.637Z,99792.63
2019-01-15T21:33:28.088Z,99797.13
2019-01-15T21:36:16.765Z,99793.14
2019-01-15T21:39:10.535Z,99793.31
2019-01-15T21:41:58.729Z,99785.64
2019-01-15T21:44:48.864Z,99790.31
2019-01-15T21:47:40.018Z,99789.16
2019-01-15T21:50:27.826Z,99784.48
2019-01-15T21:53:17.297Z,99784.12
2019-01-15T21:56:05.632Z,99783.78
2019-01-15T21:59:01.433Z,99781.79
2019-01-15T22:01:47.834Z,99782.97
2019-01-15T22:04:37.925Z,99783.13
2019-01-15T22:07:30.774Z,99775.45
2019-01-15T22:10:28.337Z,99777.64
2019-01-15T22:13:17.706Z,99775.30
2019-01-15T22:16:10.663Z,99774.14
2019-01-15T22:19:09.351Z,99772.63
2019-01-15T22:21:59.213Z,99777.96
2019-01-15T22:24:58.334Z,99771.97
2019-01-15T22:27:47.089Z,99757.63
2019-01-15T22:30:36.052Z,99759.13
2019-01-15T22:33:35.048Z,99756.63
2019-01-15T22:36:30.869Z,99759.63
2019-01-15T22:39:13.254Z,99760.29
2019-01-15T22:42:01.830Z,99756.64
2019-01-15T22:44:41.675Z,99755.30
2019-01-15T22:47:28.105Z,99743.30
2019-01-15T22:50:16.526Z,99744.64
2019-01-15T22:53:15.318Z,99743.27
2019-01-15T22:56:08.290Z,99733.62
2019-01-15T22:59:04.298Z,99726.94
2019-01-15T23:02:03.519Z,99732.56
2019-01-15T23:04:56.354Z,99729.56
2019-01-15T23:07:45.108Z,99724.39
2019-01-15T23:10:50.969Z,99718.55
2019-01-15T23:13:56.007Z,99723.20
2019-01-15T23:16:37.080Z,99711.69
2019-01-15T23:19:25.735Z,99715.02
2019-01-15T23:22:04.471Z,99713.17
2019-01-15T23:24:48.195Z,99714.31
2019-01-15T23:27:50.160Z,99717.47
2019-01-15T23:30:58.577Z,99712.62
2019-01-15T23:33:54.249Z,99707.25
2019-01-15T23:36:47.868Z,99702.09
2019-01-15T23:39:40.515Z,99695.08
2019-01-15T23:42:21.591Z,99694.87
2019-01-15T23:45:10.348Z,99688.87
2019-01-15T23:48:09.509Z,99687.19
2019-01-15T23:50:52.898Z,99683.69
2019-01-15T23:53:48.598Z,99683.03
2019-01-15T23:56:47.492Z,99674.87
2019-01-15T23:59:49.981Z,99673.84
